Felton, California
Current Conditions -  °F | °C
As of 1:53 PM on Sunday 25 Jan 2015 (Local Time) from KWVI Reporting Station
Clear Clear  
Wind Chill: 80°   Ceiling: Unl
Heat Index: 80°   Visibility: 10mi
Dew Point: 36°   Wind: 6mph
Humidity: 20%   Direction: 80°E
Pressure: 29.99"   Gusts: NA
Location:  37.05°N, 122.07°W
Report Text: KWVI 252153Z AUTO 08005KT 10SM CLR 27/02 A2999 RMK AO2 SLP155 T02670022
Loading
Personal Weather Stations






























Interactive Weather Map New forecast layout! Learn more

10-Day Weather Forecast

Advertisements
Track Severe Weather on mobile